sensor_id;sensor_type;location;lat;lon;timestamp;pressure;altitude;pressure_sealevel;temperature;humidity
53719;BME280;39616;48.872;9.390;2023-02-13T00:00:58;100306.72;;;-1.54;100.00
53719;BME280;39616;48.872;9.390;2023-02-13T00:03:28;100305.25;;;-1.64;100.00
53719;BME280;39616;48.872;9.390;2023-02-13T00:05:58;100308.56;;;-1.71;100.00
53719;BME280;39616;48.872;9.390;2023-02-13T00:08:29;100307.91;;;-1.73;100.00
53719;BME280;39616;48.872;9.390;2023-02-13T00:10:59;100305.09;;;-1.79;100.00
53719;BME280;39616;48.872;9.390;2023-02-13T00:13:29;100298.94;;;-1.72;100.00
53719;BME280;39616;48.872;9.390;2023-02-13T00:16:02;100306.94;;;-1.80;100.00
53719;BME280;39616;48.872;9.390;2023-02-13T00:18:34;100303.91;;;-1.85;100.00
53719;BME280;39616;48.872;9.390;2023-02-13T00:21:10;100309.41;;;-1.86;100.00
53719;BME280;39616;48.872;9.390;2023-02-13T00:23:41;100306.91;;;-1.88;100.00
53719;BME280;39616;48.872;9.390;2023-02-13T00:26:13;100307.09;;;-1.89;100.00
53719;BME280;39616;48.872;9.390;2023-02-13T00:28:44;100306.91;;;-1.88;100.00
53719;BME280;39616;48.872;9.390;2023-02-13T00:31:20;100311.25;;;-1.87;100.00
53719;BME280;39616;48.872;9.390;2023-02-13T00:33:51;100298.44;;;-1.91;100.00
53719;BME280;39616;48.872;9.390;2023-02-13T00:36:22;100303.44;;;-1.97;100.00
53719;BME280;39616;48.872;9.390;2023-02-13T00:38:53;100300.78;;;-1.97;100.00
53719;BME280;39616;48.872;9.390;2023-02-13T00:41:24;100301.78;;;-1.98;100.00
53719;BME280;39616;48.872;9.390;2023-02-13T00:43:54;100305.44;;;-1.99;100.00
53719;BME280;39616;48.872;9.390;2023-02-13T00:46:24;100302.28;;;-1.94;100.00
53719;BME280;39616;48.872;9.390;2023-02-13T00:48:55;100302.63;;;-1.97;100.00
53719;BME280;39616;48.872;9.390;2023-02-13T00:51:25;100298.13;;;-1.97;100.00
53719;BME280;39616;48.872;9.390;2023-02-13T00:53:55;100302.13;;;-2.01;100.00
53719;BME280;39616;48.872;9.390;2023-02-13T00:56:26;100297.28;;;-1.97;100.00
53719;BME280;39616;48.872;9.390;2023-02-13T00:58:57;100287.47;;;-1.97;100.00
53719;BME280;39616;48.872;9.390;2023-02-13T01:01:27;100293.81;;;-1.98;100.00
53719;BME280;39616;48.872;9.390;2023-02-13T01:03:57;100286.34;;;-2.02;100.00
53719;BME280;39616;48.872;9.390;2023-02-13T01:06:28;100286.34;;;-2.02;100.00
53719;BME280;39616;48.872;9.390;2023-02-13T01:08:58;100289.16;;;-2.04;100.00
53719;BME280;39616;48.872;9.390;2023-02-13T01:11:28;100289.31;;;-2.05;100.00
53719;BME280;39616;48.872;9.390;2023-02-13T01:13:59;100286.81;;;-2.07;100.00
53719;BME280;39616;48.872;9.390;2023-02-13T01:16:29;100289.16;;;-2.12;100.00
53719;BME280;39616;48.872;9.390;2023-02-13T01:18:59;100287.66;;;-2.14;100.00
53719;BME280;39616;48.872;9.390;2023-02-13T01:21:32;100291.50;;;-2.17;100.00
53719;BME280;39616;48.872;9.390;2023-02-13T01:24:04;100289.16;;;-2.20;100.00
53719;BME280;39616;48.872;9.390;2023-02-13T01:26:34;100291.63;;;-2.19;100.00
53719;BME280;39616;48.872;9.390;2023-02-13T01:29:05;100299.28;;;-2.15;100.00
53719;BME280;39616;48.872;9.390;2023-02-13T01:31:35;100294.66;;;-2.13;100.00
53719;BME280;39616;48.872;9.390;2023-02-13T01:34:05;100303.28;;;-2.11;100.00
53719;BME280;39616;48.872;9.390;2023-02-13T01:36:36;100293.31;;;-2.09;100.00
53719;BME280;39616;48.872;9.390;2023-02-13T01:39:06;100295.28;;;-2.03;100.00
53719;BME280;39616;48.872;9.390;2023-02-13T01:41:37;100293.31;;;-2.01;100.00
53719;BME280;39616;48.872;9.390;2023-02-13T01:47:26;100300.63;;;-1.95;100.00
53719;BME280;39616;48.872;9.390;2023-02-13T01:50:13;100291.16;;;-1.98;100.00
53719;BME280;39616;48.872;9.390;2023-02-13T01:53:07;100285.47;;;-2.03;100.00
53719;BME280;39616;48.872;9.390;2023-02-13T01:55:49;100292.81;;;-2.05;100.00
53719;BME280;39616;48.872;9.390;2023-02-13T01:58:25;100291.31;;;-2.15;100.00
53719;BME280;39616;48.872;9.390;2023-02-13T02:00:57;100287.66;;;-2.31;100.00
53719;BME280;39616;48.872;9.390;2023-02-13T02:03:34;100288.47;;;-2.38;100.00
53719;BME280;39616;48.872;9.390;2023-02-13T02:06:07;100283.81;;;-2.53;100.00
53719;BME280;39616;48.872;9.390;2023-02-13T02:08:40;100288.31;;;-2.53;100.00
53719;BME280;39616;48.872;9.390;2023-02-13T02:11:19;100287.44;;;-2.62;100.00
53719;BME280;39616;48.872;9.390;2023-02-13T02:13:52;100283.13;;;-2.63;100.00
53719;BME280;39616;48.872;9.390;2023-02-13T02:16:24;100286.97;;;-2.57;100.00
53719;BME280;39616;48.872;9.390;2023-02-13T02:18:54;100281.97;;;-2.52;100.00
53719;BME280;39616;48.872;9.390;2023-02-13T02:22:00;100280.34;;;-2.45;100.00
53719;BME280;39616;48.872;9.390;2023-02-13T02:25:10;100273.19;;;-2.45;100.00
53719;BME280;39616;48.872;9.390;2023-02-13T02:36:10;100268.38;;;-2.57;100.00
53719;BME280;39616;48.872;9.390;2023-02-13T02:50:24;100270.22;;;-2.50;100.00
53719;BME280;39616;48.872;9.390;2023-02-13T02:53:16;100270.69;;;-2.54;100.00
53719;BME280;39616;48.872;9.390;2023-02-13T02:58:46;100269.66;;;-2.70;100.00
53719;BME280;39616;48.872;9.390;2023-02-13T03:01:38;100265.34;;;-2.71;100.00
53719;BME280;39616;48.872;9.390;2023-02-13T03:04:37;100272.50;;;-2.71;100.00
53719;BME280;39616;48.872;9.390;2023-02-13T03:07:27;100273.31;;;-2.71;100.00
53719;BME280;39616;48.872;9.390;2023-02-13T03:10:04;100269.66;;;-2.70;100.00
53719;BME280;39616;48.872;9.390;2023-02-13T03:13:03;100279.97;;;-2.67;100.00
53719;BME280;39616;48.872;9.390;2023-02-13T03:15:56;100283.78;;;-2.69;100.00
53719;BME280;39616;48.872;9.390;2023-02-13T03:18:51;100281.09;;;-2.69;100.00
53719;BME280;39616;48.872;9.390;2023-02-13T03:22:05;100279.94;;;-2.83;100.00
53719;BME280;39616;48.872;9.390;2023-02-13T03:25:15;100283.91;;;-2.87;100.00
53719;BME280;39616;48.872;9.390;2023-02-13T03:28:05;100284.44;;;-2.83;100.00
53719;BME280;39616;48.872;9.390;2023-02-13T03:33:53;100281.09;;;-2.77;100.00
53719;BME280;39616;48.872;9.390;2023-02-13T03:36:31;100289.88;;;-2.77;100.00
53719;BME280;39616;48.872;9.390;2023-02-13T03:39:33;100285.25;;;-2.75;100.00
53719;BME280;39616;48.872;9.390;2023-02-13T03:42:08;100289.56;;;-2.74;100.00
53719;BME280;39616;48.872;9.390;2023-02-13T03:44:48;100291.22;;;-2.73;100.00
53719;BME280;39616;48.872;9.390;2023-02-13T03:47:41;100290.09;;;-2.70;100.00
53719;BME280;39616;48.872;9.390;2023-02-13T03:50:14;100293.75;;;-2.63;100.00
53719;BME280;39616;48.872;9.390;2023-02-13T03:55:31;100303.88;;;-2.67;100.00
53719;BME280;39616;48.872;9.390;2023-02-13T04:01:18;100310.19;;;-2.68;100.00
53719;BME280;39616;48.872;9.390;2023-02-13T04:06:49;100316.97;;;-2.73;100.00
53719;BME280;39616;48.872;9.390;2023-02-13T04:09:22;100312.66;;;-2.74;100.00
53719;BME280;39616;48.872;9.390;2023-02-13T04:12:18;100312.78;;;-2.84;100.00
53719;BME280;39616;48.872;9.390;2023-02-13T04:14:57;100309.44;;;-2.94;100.00
53719;BME280;39616;48.872;9.390;2023-02-13T04:17:35;100321.84;;;-2.95;100.00
53719;BME280;39616;48.872;9.390;2023-02-13T04:20:07;100311.09;;;-2.93;100.00
53719;BME280;39616;48.872;9.390;2023-02-13T04:22:44;100319.38;;;-2.96;100.00
53719;BME280;39616;48.872;9.390;2023-02-13T04:25:16;100311.59;;;-2.98;100.00
53719;BME280;39616;48.872;9.390;2023-02-13T04:27:47;100322.22;;;-2.98;100.00
53719;BME280;39616;48.872;9.390;2023-02-13T04:30:18;100322.53;;;-3.01;100.00
53719;BME280;39616;48.872;9.390;2023-02-13T04:32:48;100326.00;;;-3.00;100.00
53719;BME280;39616;48.872;9.390;2023-02-13T04:35:18;100327.66;;;-2.99;100.00
53719;BME280;39616;48.872;9.390;2023-02-13T04:37:49;100326.69;;;-2.98;100.00
53719;BME280;39616;48.872;9.390;2023-02-13T04:40:19;100329.16;;;-2.97;100.00
53719;BME280;39616;48.872;9.390;2023-02-13T04:42:49;100321.41;;;-2.90;100.00
53719;BME280;39616;48.872;9.390;2023-02-13T04:45:20;100319.41;;;-2.88;100.00
53719;BME280;39616;48.872;9.390;2023-02-13T04:47:52;100318.09;;;-2.84;100.00
53719;BME280;39616;48.872;9.390;2023-02-13T04:50:23;100317.13;;;-2.83;100.00
53719;BME280;39616;48.872;9.390;2023-02-13T04:52:56;100321.09;;;-2.87;100.00
53719;BME280;39616;48.872;9.390;2023-02-13T04:55:27;100321.84;;;-2.95;100.00
53719;BME280;39616;48.872;9.390;2023-02-13T04:57:58;100322.34;;;-2.99;100.00
53719;BME280;39616;48.872;9.390;2023-02-13T05:00:28;100328.16;;;-3.04;100.00
53719;BME280;39616;48.872;9.390;2023-02-13T05:03:09;100324.63;;;-3.12;100.00
53719;BME280;39616;48.872;9.390;2023-02-13T05:05:40;100322.44;;;-3.17;100.00
53719;BME280;39616;48.872;9.390;2023-02-13T05:08:10;100330.56;;;-3.19;100.00
53719;BME280;39616;48.872;9.390;2023-02-13T05:10:40;100329.88;;;-3.21;100.00
53719;BME280;39616;48.872;9.390;2023-02-13T05:13:11;100327.75;;;-3.17;100.00
53719;BME280;39616;48.872;9.390;2023-02-13T05:15:41;100329.56;;;-3.18;100.00
53719;BME280;39616;48.872;9.390;2023-02-13T05:18:11;100324.91;;;-3.24;100.00
53719;BME280;39616;48.872;9.390;2023-02-13T05:20:41;100327.56;;;-3.24;100.00
53719;BME280;39616;48.872;9.390;2023-02-13T05:23:13;100327.06;;;-3.27;100.00
53719;BME280;39616;48.872;9.390;2023-02-13T05:25:53;100326.06;;;-3.26;100.00
53719;BME280;39616;48.872;9.390;2023-02-13T05:28:23;100331.06;;;-3.23;100.00
53719;BME280;39616;48.872;9.390;2023-02-13T05:31:12;100334.22;;;-3.20;100.00
53719;BME280;39616;48.872;9.390;2023-02-13T05:33:42;100331.41;;;-3.18;100.00
53719;BME280;39616;48.872;9.390;2023-02-13T05:36:12;100335.69;;;-3.17;100.00
53719;BME280;39616;48.872;9.390;2023-02-13T05:38:43;100328.13;;;-3.12;100.00
53719;BME280;39616;48.872;9.390;2023-02-13T05:41:13;100329.78;;;-3.11;100.00
53719;BME280;39616;48.872;9.390;2023-02-13T05:43:43;100324.28;;;-3.09;100.00
53719;BME280;39616;48.872;9.390;2023-02-13T05:46:14;100319.63;;;-3.16;100.00
53719;BME280;39616;48.872;9.390;2023-02-13T05:48:44;100332.53;;;-3.21;100.00
53719;BME280;39616;48.872;9.390;2023-02-13T05:51:14;100322.19;;;-3.32;100.00
53719;BME280;39616;48.872;9.390;2023-02-13T05:53:45;100322.16;;;-3.40;100.00
53719;BME280;39616;48.872;9.390;2023-02-13T05:56:15;100319.19;;;-3.37;100.00
53719;BME280;39616;48.872;9.390;2023-02-13T05:58:46;100320.84;;;-3.36;100.00
53719;BME280;39616;48.872;9.390;2023-02-13T06:01:16;100322.53;;;-3.35;100.00
53719;BME280;39616;48.872;9.390;2023-02-13T06:03:47;100316.38;;;-3.35;100.00
53719;BME280;39616;48.872;9.390;2023-02-13T06:06:17;100321.84;;;-3.37;100.00
53719;BME280;39616;48.872;9.390;2023-02-13T06:08:48;100319.88;;;-3.35;100.00
53719;BME280;39616;48.872;9.390;2023-02-13T06:11:19;100328.16;;;-3.38;100.00
53719;BME280;39616;48.872;9.390;2023-02-13T06:13:49;100330.63;;;-3.36;100.00
53719;BME280;39616;48.872;9.390;2023-02-13T06:16:20;100328.81;;;-3.36;100.00
53719;BME280;39616;48.872;9.390;2023-02-13T06:18:51;100335.81;;;-3.35;100.00
53719;BME280;39616;48.872;9.390;2023-02-13T06:21:21;100344.28;;;-3.31;100.00
53719;BME280;39616;48.872;9.390;2023-02-13T06:23:52;100335.00;;;-3.27;100.00
53719;BME280;39616;48.872;9.390;2023-02-13T06:26:22;100329.34;;;-3.24;100.00
53719;BME280;39616;48.872;9.390;2023-02-13T06:28:53;100331.88;;;-3.23;100.00
53719;BME280;39616;48.872;9.390;2023-02-13T06:31:23;100334.22;;;-3.20;100.00
53719;BME280;39616;48.872;9.390;2023-02-13T06:33:54;100328.94;;;-3.11;100.00
53719;BME280;39616;48.872;9.390;2023-02-13T06:36:24;100339.56;;;-3.11;100.00
53719;BME280;39616;48.872;9.390;2023-02-13T06:38:58;100341.88;;;-3.17;100.00
53719;BME280;39616;48.872;9.390;2023-02-13T06:41:28;100343.16;;;-3.21;100.00
53719;BME280;39616;48.872;9.390;2023-02-13T06:43:59;100338.53;;;-3.19;100.00
53719;BME280;39616;48.872;9.390;2023-02-13T06:46:29;100342.34;;;-3.13;100.00
53719;BME280;39616;48.872;9.390;2023-02-13T06:48:59;100337.91;;;-3.12;100.00
53719;BME280;39616;48.872;9.390;2023-02-13T06:51:29;100343.72;;;-3.09;100.00
53719;BME280;39616;48.872;9.390;2023-02-13T06:54:00;100342.25;;;-3.03;100.00
53719;BME280;39616;48.872;9.390;2023-02-13T06:56:30;100345.13;;;-2.88;100.00
53719;BME280;39616;48.872;9.390;2023-02-13T06:59:01;100345.53;;;-2.75;100.00
53719;BME280;39616;48.872;9.390;2023-02-13T07:01:32;100342.06;;;-2.68;100.00
53719;BME280;39616;48.872;9.390;2023-02-13T07:04:02;100345.88;;;-2.62;100.00
53719;BME280;39616;48.872;9.390;2023-02-13T07:06:32;100338.28;;;-2.40;100.00
53719;BME280;39616;48.872;9.390;2023-02-13T07:09:03;100338.16;;;-2.06;100.00
53719;BME280;39616;48.872;9.390;2023-02-13T07:11:33;100336.50;;;-2.07;100.00
53719;BME280;39616;48.872;9.390;2023-02-13T07:14:07;100345.84;;;-1.95;100.00
53719;BME280;39616;48.872;9.390;2023-02-13T07:16:38;100344.31;;;-1.81;100.00
53719;BME280;39616;48.872;9.390;2023-02-13T07:19:08;100348.13;;;-1.59;100.00
53719;BME280;39616;48.872;9.390;2023-02-13T07:21:39;100354.56;;;-1.29;100.00
53719;BME280;39616;48.872;9.390;2023-02-13T07:24:09;100350.69;;;-1.10;100.00
53719;BME280;39616;48.872;9.390;2023-02-13T07:26:39;100343.56;;;-0.79;100.00
53719;BME280;39616;48.872;9.390;2023-02-13T07:29:10;100351.09;;;-0.51;99.36
53719;BME280;39616;48.872;9.390;2023-02-13T07:31:40;100341.59;;;-0.22;98.62
53719;BME280;39616;48.872;9.390;2023-02-13T07:34:11;100347.28;;;-0.03;94.83
53719;BME280;39616;48.872;9.390;2023-02-13T07:36:41;100340.44;;;0.18;93.40
53719;BME280;39616;48.872;9.390;2023-02-13T07:39:11;100340.22;;;0.28;92.32
53719;BME280;39616;48.872;9.390;2023-02-13T07:41:41;100345.84;;;0.47;90.02
53719;BME280;39616;48.872;9.390;2023-02-13T07:44:12;100345.03;;;0.62;89.88
53719;BME280;39616;48.872;9.390;2023-02-13T07:46:42;100357.22;;;0.79;89.22
53719;BME280;39616;48.872;9.390;2023-02-13T07:49:12;100346.34;;;0.95;88.41
53719;BME280;39616;48.872;9.390;2023-02-13T07:51:43;100351.44;;;1.05;88.75
53719;BME280;39616;48.872;9.390;2023-02-13T07:54:13;100342.59;;;1.05;88.81
53719;BME280;39616;48.872;9.390;2023-02-13T07:56:43;100348.03;;;1.11;88.56
53719;BME280;39616;48.872;9.390;2023-02-13T07:59:14;100345.72;;;1.08;88.60
53719;BME280;39616;48.872;9.390;2023-02-13T08:01:44;100349.84;;;1.26;89.17
53719;BME280;39616;48.872;9.390;2023-02-13T08:04:15;100342.75;;;1.33;88.67
53719;BME280;39616;48.872;9.390;2023-02-13T08:06:45;100348.19;;;1.61;87.06
53719;BME280;39616;48.872;9.390;2023-02-13T08:09:19;100343.19;;;1.73;88.61
53719;BME280;39616;48.872;9.390;2023-02-13T08:12:08;100336.00;;;2.16;87.49
53719;BME280;39616;48.872;9.390;2023-02-13T08:14:39;100345.63;;;2.60;84.18
53719;BME280;39616;48.872;9.390;2023-02-13T08:17:09;100339.31;;;3.09;84.25
53719;BME280;39616;48.872;9.390;2023-02-13T08:19:39;100347.16;;;3.52;80.68
53719;BME280;39616;48.872;9.390;2023-02-13T08:22:10;100341.25;;;3.83;77.63
53719;BME280;39616;48.872;9.390;2023-02-13T08:24:40;100343.34;;;3.87;78.45
53719;BME280;39616;48.872;9.390;2023-02-13T08:27:14;100341.28;;;4.03;76.53
53719;BME280;39616;48.872;9.390;2023-02-13T08:29:44;100334.28;;;4.22;79.67
53719;BME280;39616;48.872;9.390;2023-02-13T08:32:15;100333.22;;;4.82;78.87
53719;BME280;39616;48.872;9.390;2023-02-13T08:34:45;100333.84;;;5.43;76.00
53719;BME280;39616;48.872;9.390;2023-02-13T08:37:16;100325.78;;;5.81;74.17
53719;BME280;39616;48.872;9.390;2023-02-13T08:39:46;100320.34;;;6.26;74.07
53719;BME280;39616;48.872;9.390;2023-02-13T08:42:17;100325.31;;;6.47;70.50
53719;BME280;39616;48.872;9.390;2023-02-13T08:44:47;100322.06;;;6.64;70.13
53719;BME280;39616;48.872;9.390;2023-02-13T08:47:18;100332.44;;;6.67;70.06
53719;BME280;39616;48.872;9.390;2023-02-13T08:49:48;100322.69;;;6.84;68.67
53719;BME280;39616;48.872;9.390;2023-02-13T08:52:18;100322.78;;;6.77;70.28
53719;BME280;39616;48.872;9.390;2023-02-13T08:54:48;100321.44;;;7.05;68.78
53719;BME280;39616;48.872;9.390;2023-02-13T08:57:19;100316.84;;;6.87;70.24
53719;BME280;39616;48.872;9.390;2023-02-13T08:59:49;100318.59;;;6.82;69.41
53719;BME280;39616;48.872;9.390;2023-02-13T09:02:20;100310.56;;;7.90;68.30
53719;BME280;39616;48.872;9.390;2023-02-13T09:04:50;100311.78;;;8.48;66.60
53719;BME280;39616;48.872;9.390;2023-02-13T09:07:20;100316.59;;;8.46;65.45
53719;BME280;39616;48.872;9.390;2023-02-13T09:09:53;100311.91;;;8.53;64.33
53719;BME280;39616;48.872;9.390;2023-02-13T09:12:23;100308.31;;;8.29;65.27
53719;BME280;39616;48.872;9.390;2023-02-13T09:14:56;100309.16;;;8.30;65.90
53719;BME280;39616;48.872;9.390;2023-02-13T09:17:28;100303.84;;;9.17;63.65
53719;BME280;39616;48.872;9.390;2023-02-13T09:19:59;100320.47;;;8.85;64.12
53719;BME280;39616;48.872;9.390;2023-02-13T09:22:29;100310.56;;;9.14;62.89
53719;BME280;39616;48.872;9.390;2023-02-13T09:24:59;100322.88;;;9.34;62.45
53719;BME280;39616;48.872;9.390;2023-02-13T09:27:33;100318.94;;;9.01;62.81
53719;BME280;39616;48.872;9.390;2023-02-13T09:30:06;100311.41;;;9.03;63.18
53719;BME280;39616;48.872;9.390;2023-02-13T09:32:37;100316.56;;;9.05;63.70
53719;BME280;39616;48.872;9.390;2023-02-13T09:35:10;100318.38;;;8.87;64.06
53719;BME280;39616;48.872;9.390;2023-02-13T09:37:40;100317.78;;;8.74;62.51
53719;BME280;39616;48.872;9.390;2023-02-13T09:40:24;100315.31;;;8.60;64.82
53719;BME280;39616;48.872;9.390;2023-02-13T09:43:04;100316.00;;;8.91;63.02
53719;BME280;39616;48.872;9.390;2023-02-13T09:45:36;100321.09;;;8.87;62.93
53719;BME280;39616;48.872;9.390;2023-02-13T09:48:10;100317.03;;;9.02;63.40
53719;BME280;39616;48.872;9.390;2023-02-13T09:50:44;100318.78;;;9.19;62.68
53719;BME280;39616;48.872;9.390;2023-02-13T09:53:20;100311.38;;;9.84;60.76
53719;BME280;39616;48.872;9.390;2023-02-13T09:56:16;100310.81;;;9.82;59.85
53719;BME280;39616;48.872;9.390;2023-02-13T09:59:00;100315.34;;;9.93;59.08
53719;BME280;39616;48.872;9.390;2023-02-13T10:01:40;100309.25;;;10.65;57.62
53719;BME280;39616;48.872;9.390;2023-02-13T10:12:45;100323.56;;;10.44;57.80
53719;BME280;39616;48.872;9.390;2023-02-13T10:15:22;100315.25;;;10.05;58.86
53719;BME280;39616;48.872;9.390;2023-02-13T10:18:02;100314.59;;;9.81;59.66
53719;BME280;39616;48.872;9.390;2023-02-13T10:20:47;100308.00;;;9.77;60.37
53719;BME280;39616;48.872;9.390;2023-02-13T10:23:30;100312.69;;;9.81;60.71
53719;BME280;39616;48.872;9.390;2023-02-13T10:26:11;100307.97;;;10.05;60.06
53719;BME280;39616;48.872;9.390;2023-02-13T10:29:03;100303.63;;;10.21;59.55
53719;BME280;39616;48.872;9.390;2023-02-13T10:31:54;100310.13;;;10.20;59.00
53719;BME280;39616;48.872;9.390;2023-02-13T10:34:34;100308.25;;;10.37;59.18
53719;BME280;39616;48.872;9.390;2023-02-13T10:37:14;100308.75;;;10.34;59.24
53719;BME280;39616;48.872;9.390;2023-02-13T10:39:50;100295.88;;;9.96;60.96
53719;BME280;39616;48.872;9.390;2023-02-13T10:42:40;100298.88;;;10.45;59.27
53719;BME280;39616;48.872;9.390;2023-02-13T10:45:26;100293.28;;;10.52;58.33
53719;BME280;39616;48.872;9.390;2023-02-13T10:51:14;100284.78;;;10.43;58.77
53719;BME280;39616;48.872;9.390;2023-02-13T10:53:58;100289.53;;;10.92;57.28
53719;BME280;39616;48.872;9.390;2023-02-13T10:56:43;100268.38;;;11.37;56.12
53719;BME280;39616;48.872;9.390;2023-02-13T10:59:54;100271.22;;;11.48;56.37
53719;BME280;39616;48.872;9.390;2023-02-13T11:02:32;100274.03;;;11.09;56.98
53719;BME280;39616;48.872;9.390;2023-02-13T11:07:44;100267.06;;;11.40;56.17
53719;BME280;39616;48.872;9.390;2023-02-13T11:10:21;100256.06;;;11.79;54.83
53719;BME280;39616;48.872;9.390;2023-02-13T11:12:53;100258.88;;;12.21;53.64
53719;BME280;39616;48.872;9.390;2023-02-13T11:15:29;100249.78;;;12.05;53.68
53719;BME280;39616;48.872;9.390;2023-02-13T11:18:13;100243.66;;;11.61;53.96
53719;BME280;39616;48.872;9.390;2023-02-13T11:21:01;100257.84;;;11.19;55.53
53719;BME280;39616;48.872;9.390;2023-02-13T11:26:37;100248.00;;;11.13;55.54
53719;BME280;39616;48.872;9.390;2023-02-13T11:29:25;100259.09;;;11.33;55.46
53719;BME280;39616;48.872;9.390;2023-02-13T11:34:34;100260.53;;;11.41;55.73
53719;BME280;39616;48.872;9.390;2023-02-13T11:37:20;100259.28;;;11.49;55.37
53719;BME280;39616;48.872;9.390;2023-02-13T11:39:55;100258.34;;;11.38;55.71
53719;BME280;39616;48.872;9.390;2023-02-13T11:42:46;100258.78;;;10.86;57.17
53719;BME280;39616;48.872;9.390;2023-02-13T11:45:23;100258.09;;;10.96;56.92
53719;BME280;39616;48.872;9.390;2023-02-13T11:47:54;100256.44;;;10.73;56.85
53719;BME280;39616;48.872;9.390;2023-02-13T11:50:31;100252.59;;;10.69;57.04
53719;BME280;39616;48.872;9.390;2023-02-13T11:53:05;100252.78;;;10.84;57.22
53719;BME280;39616;48.872;9.390;2023-02-13T11:55:39;100250.88;;;10.62;57.49
53719;BME280;39616;48.872;9.390;2023-02-13T12:00:40;100257.25;;;11.12;56.22
53719;BME280;39616;48.872;9.390;2023-02-13T12:06:11;100252.47;;;10.80;57.67
53719;BME280;39616;48.872;9.390;2023-02-13T12:08:45;100247.28;;;10.57;58.03
53719;BME280;39616;48.872;9.390;2023-02-13T12:11:19;100241.31;;;10.77;57.72
53719;BME280;39616;48.872;9.390;2023-02-13T12:13:51;100243.97;;;10.72;57.78
53719;BME280;39616;48.872;9.390;2023-02-13T12:16:36;100246.25;;;10.63;58.23
53719;BME280;39616;48.872;9.390;2023-02-13T12:19:17;100244.31;;;10.42;58.61
53719;BME280;39616;48.872;9.390;2023-02-13T12:25:05;100246.63;;;10.50;58.77
53719;BME280;39616;48.872;9.390;2023-02-13T12:44:24;100235.78;;;10.33;60.07
53719;BME280;39616;48.872;9.390;2023-02-13T12:47:19;100228.03;;;10.25;59.94
53719;BME280;39616;48.872;9.390;2023-02-13T12:53:39;100223.38;;;10.37;59.95
53719;BME280;39616;48.872;9.390;2023-02-13T12:58:56;100221.97;;;10.51;59.17
53719;BME280;39616;48.872;9.390;2023-02-13T13:01:42;100220.44;;;10.38;59.95
53719;BME280;39616;48.872;9.390;2023-02-13T13:04:42;100218.28;;;10.40;59.83
53719;BME280;39616;48.872;9.390;2023-02-13T13:10:19;100214.91;;;10.50;60.18
53719;BME280;39616;48.872;9.390;2023-02-13T13:13:00;100211.06;;;10.29;60.29
53719;BME280;39616;48.872;9.390;2023-02-13T13:15:41;100213.81;;;10.51;59.89
53719;BME280;39616;48.872;9.390;2023-02-13T13:24:40;100201.59;;;10.15;60.60
53719;BME280;39616;48.872;9.390;2023-02-13T13:27:23;100215.81;;;10.05;61.04
53719;BME280;39616;48.872;9.390;2023-02-13T13:30:01;100200.38;;;10.06;61.49
53719;BME280;39616;48.872;9.390;2023-02-13T13:32:33;100202.09;;;9.95;61.76
53719;BME280;39616;48.872;9.390;2023-02-13T13:35:05;100201.34;;;10.00;61.46
53719;BME280;39616;48.872;9.390;2023-02-13T13:37:50;100201.34;;;10.00;61.56
53719;BME280;39616;48.872;9.390;2023-02-13T13:40:55;100203.47;;;9.98;61.89
53719;BME280;39616;48.872;9.390;2023-02-13T13:44:36;100204.06;;;10.00;62.07
53719;BME280;39616;48.872;9.390;2023-02-13T13:49:47;100205.47;;;9.68;62.62
53719;BME280;39616;48.872;9.390;2023-02-13T13:54:59;100194.84;;;9.50;63.49
53719;BME280;39616;48.872;9.390;2023-02-13T14:03:21;100189.91;;;9.47;63.29
53719;BME280;39616;48.872;9.390;2023-02-13T14:06:01;100191.75;;;9.30;63.77
53719;BME280;39616;48.872;9.390;2023-02-13T14:13:55;100181.13;;;9.40;63.56
53719;BME280;39616;48.872;9.390;2023-02-13T14:22:34;100185.47;;;9.41;63.48
53719;BME280;39616;48.872;9.390;2023-02-13T14:25:21;100192.34;;;9.32;63.86
53719;BME280;39616;48.872;9.390;2023-02-13T14:27:59;100188.84;;;9.19;64.15
53719;BME280;39616;48.872;9.390;2023-02-13T14:30:34;100189.59;;;9.15;64.40
53719;BME280;39616;48.872;9.390;2023-02-13T14:33:07;100189.84;;;9.13;64.96
53719;BME280;39616;48.872;9.390;2023-02-13T14:36:03;100183.69;;;9.18;64.59
53719;BME280;39616;48.872;9.390;2023-02-13T14:38:35;100186.06;;;9.14;64.62
53719;BME280;39616;48.872;9.390;2023-02-13T14:46:55;100198.19;;;9.12;64.58
53719;BME280;39616;48.872;9.390;2023-02-13T14:49:32;100193.63;;;9.01;64.95
53719;BME280;39616;48.872;9.390;2023-02-13T14:52:07;100190.19;;;9.05;65.04
53719;BME280;39616;48.872;9.390;2023-02-13T14:54:50;100200.22;;;9.05;65.04
53719;BME280;39616;48.872;9.390;2023-02-13T14:57:25;100198.47;;;8.99;65.16
53719;BME280;39616;48.872;9.390;2023-02-13T15:00:03;100194.09;;;8.98;65.20
53719;BME280;39616;48.872;9.390;2023-02-13T15:02:45;100196.94;;;8.91;65.75
53719;BME280;39616;48.872;9.390;2023-02-13T15:05:19;100188.16;;;8.84;65.69
53719;BME280;39616;48.872;9.390;2023-02-13T15:07:53;100184.91;;;8.70;66.31
53719;BME280;39616;48.872;9.390;2023-02-13T15:10:43;100183.88;;;8.59;66.62
53719;BME280;39616;48.872;9.390;2023-02-13T15:13:20;100183.03;;;8.59;67.05
53719;BME280;39616;48.872;9.390;2023-02-13T15:15:56;100178.00;;;8.51;67.13
53719;BME280;39616;48.872;9.390;2023-02-13T15:18:32;100178.22;;;8.49;67.06
53719;BME280;39616;48.872;9.390;2023-02-13T15:21:04;100182.47;;;8.45;67.10
53719;BME280;39616;48.872;9.390;2023-02-13T15:23:34;100180.50;;;8.40;67.28
53719;BME280;39616;48.872;9.390;2023-02-13T15:26:06;100181.63;;;8.21;68.08
53719;BME280;39616;48.872;9.390;2023-02-13T15:28:36;100176.72;;;8.18;68.21
53719;BME280;39616;48.872;9.390;2023-02-13T15:31:20;100181.41;;;7.99;68.74
53719;BME280;39616;48.872;9.390;2023-02-13T15:33:52;100180.09;;;7.90;69.12
53719;BME280;39616;48.872;9.390;2023-02-13T15:36:26;100176.69;;;7.83;69.49
53719;BME280;39616;48.872;9.390;2023-02-13T15:39:04;100172.09;;;7.71;69.63